Time;durP1;ratioP1;P1;durP2;ratioP2;P2;SDS_P1;SDS_P2;PMS_P1;PMS_P2;Temp;Humidity;BMP_temperature;BMP_pressure;BME280_temperature;BME280_humidity;BME280_pressure;Samples;Min_cycle;Max_cycle;Signal;HPM_P1;HPM_P2
2022/01/14 00:01:06;;;;;;;40.33;31.83;;;-1.60;99.90;;;;;;5072513;28;20432;-78
2022/01/14 00:03:33;;;;;;;36.73;31.93;;;-1.60;99.90;;;;;;5065610;28;20949;-78
2022/01/14 00:06:00;;;;;;;36.77;29.73;;;-1.70;99.90;;;;;;5061850;28;20541;-78
2022/01/14 00:08:27;;;;;;;34.47;30.50;;;-1.70;99.90;;;;;;5070143;28;20460;-78
2022/01/14 00:10:56;;;;;;;38.37;30.13;;;-1.70;99.90;;;;;;5068104;28;20470;-78
2022/01/14 00:13:48;;;;;;;39.83;30.87;;;-1.80;99.90;;;;;;5069690;28;20463;-79
2022/01/14 00:16:17;;;;;;;40.10;30.23;;;-1.80;99.90;;;;;;5068836;28;20437;-77
2022/01/14 00:18:44;;;;;;;39.10;30.57;;;-1.80;99.90;;;;;;5069603;28;20533;-79
2022/01/14 00:21:11;;;;;;;36.23;31.07;;;-1.70;99.90;;;;;;5071188;28;20490;-78
2022/01/14 00:23:40;;;;;;;36.23;29.07;;;-1.70;99.90;;;;;;5066780;28;20949;-78
2022/01/14 00:31:48;;;;;;;36.80;29.33;;;-1.60;99.90;;;;;;5062060;28;20831;-79
2022/01/14 00:34:16;;;;;;;35.00;27.73;;;-1.60;99.90;;;;;;5069246;28;20441;-78
2022/01/14 00:36:44;;;;;;;34.70;28.53;;;-1.60;99.90;;;;;;5067519;28;20466;-78
2022/01/14 00:39:12;;;;;;;36.47;29.20;;;-1.60;99.90;;;;;;5068087;28;20471;-77
2022/01/14 00:41:40;;;;;;;31.73;26.73;;;-1.60;99.90;;;;;;5066862;28;20969;-78
2022/01/14 00:44:11;;;;;;;30.83;27.33;;;-1.60;99.90;;;;;;5073517;28;20445;-78
2022/01/14 00:46:40;;;;;;;35.83;29.07;;;-1.60;99.90;;;;;;5068960;28;20504;-79
2022/01/14 00:49:07;;;;;;;34.73;29.10;;;-1.60;99.90;;;;;;5065900;28;20452;-79
2022/01/14 00:51:35;;;;;;;31.83;28.37;;;-1.60;99.90;;;;;;5070144;28;20480;-78
2022/01/14 00:54:02;;;;;;;40.30;30.77;;;-1.70;99.90;;;;;;5067420;28;20947;-78
2022/01/14 00:56:33;;;;;;;37.87;30.47;;;-1.70;99.90;;;;;;5066178;28;20442;-78
2022/01/14 00:59:14;;;;;;;30.67;26.67;;;-1.70;99.90;;;;;;5073770;28;20512;-79
2022/01/14 01:01:44;;;;;;;37.77;29.63;;;-1.70;99.90;;;;;;5058680;28;20512;-78
2022/01/14 01:04:12;;;;;;;36.97;29.77;;;-1.70;99.90;;;;;;5061738;28;20509;-78
2022/01/14 01:06:40;;;;;;;37.37;29.10;;;-1.70;99.90;;;;;;5070062;28;20758;-79
2022/01/14 01:09:10;;;;;;;37.83;29.40;;;-1.80;99.90;;;;;;5064997;28;20437;-78
2022/01/14 01:11:40;;;;;;;37.27;30.73;;;-1.80;99.90;;;;;;5068215;28;20468;-79
2022/01/14 01:14:11;;;;;;;39.33;31.03;;;-1.80;99.90;;;;;;5072183;28;20987;-77
2022/01/14 01:16:39;;;;;;;40.63;31.10;;;-1.80;99.90;;;;;;5065051;28;20985;-78
2022/01/14 01:19:07;;;;;;;41.33;31.13;;;-1.80;99.90;;;;;;5074912;28;20448;-78
2022/01/14 01:21:34;;;;;;;36.57;30.07;;;-1.80;99.90;;;;;;5069042;28;20452;-79
2022/01/14 01:24:01;;;;;;;36.63;30.17;;;-1.80;99.90;;;;;;5065101;28;20493;-79
2022/01/14 01:26:31;;;;;;;32.97;29.27;;;-1.90;99.90;;;;;;5059261;28;20438;-78
2022/01/14 01:29:05;;;;;;;33.50;28.70;;;-1.90;99.90;;;;;;5067617;28;20450;-79
2022/01/14 01:31:36;;;;;;;35.60;29.53;;;-1.90;99.90;;;;;;5067354;28;21009;-79
2022/01/14 01:34:03;;;;;;;35.37;29.07;;;-1.90;99.90;;;;;;5060033;28;21006;-78
2022/01/14 01:36:31;;;;;;;41.30;28.83;;;-1.90;99.90;;;;;;5066265;28;20438;-79
2022/01/14 01:38:58;;;;;;;35.70;28.80;;;-1.90;99.90;;;;;;5067669;28;20483;-79
2022/01/14 01:41:25;;;;;;;36.83;29.20;;;-1.90;99.90;;;;;;5070346;28;20450;-79
2022/01/14 01:43:54;;;;;;;35.03;28.47;;;-1.90;99.90;;;;;;5066665;28;20453;-79
2022/01/14 01:46:23;;;;;;;33.60;26.40;;;-2.00;99.90;;;;;;5063440;28;20537;-79
2022/01/14 01:48:51;;;;;;;35.90;29.83;;;-2.00;99.90;;;;;;5064482;28;20438;-79
2022/01/14 01:51:18;;;;;;;34.73;28.30;;;-2.00;99.90;;;;;;5071245;28;20469;-77
2022/01/14 01:53:47;;;;;;;34.63;27.80;;;-2.00;99.90;;;;;;5067728;28;20953;-78
2022/01/14 01:56:14;;;;;;;29.50;26.30;;;-2.00;99.90;;;;;;5065796;28;20528;-79
2022/01/14 01:58:41;;;;;;;34.90;27.03;;;-2.10;99.90;;;;;;5063025;28;20871;-79
2022/01/14 02:01:09;;;;;;;35.37;28.50;;;-2.10;99.90;;;;;;5070114;28;20536;-78
2022/01/14 02:03:37;;;;;;;32.87;27.43;;;-2.10;99.90;;;;;;5067879;28;20479;-78
2022/01/14 02:06:05;;;;;;;35.90;27.73;;;-2.10;99.90;;;;;;5063987;28;20461;-79
2022/01/14 02:08:32;;;;;;;32.67;27.13;;;-2.10;99.90;;;;;;5070214;28;20468;-78
2022/01/14 02:11:00;;;;;;;34.70;27.33;;;-2.10;99.90;;;;;;5067308;28;20539;-78
2022/01/14 02:13:27;;;;;;;33.03;27.97;;;-2.10;99.90;;;;;;5067950;28;20962;-78
2022/01/14 02:16:16;;;;;;;34.30;26.67;;;-2.20;99.90;;;;;;5067722;28;20452;-78
2022/01/14 02:18:49;;;;;;;32.07;25.73;;;-2.20;99.90;;;;;;5056536;28;20468;-78
2022/01/14 02:24:19;;;;;;;30.50;26.03;;;-2.20;99.90;;;;;;5071227;28;20456;-79
2022/01/14 02:26:48;;;;;;;28.27;25.27;;;-2.10;99.90;;;;;;5062307;28;20892;-78
2022/01/14 02:29:16;;;;;;;34.97;27.43;;;-2.10;99.90;;;;;;5067936;28;20433;-78
2022/01/14 02:31:43;;;;;;;33.60;27.13;;;-2.10;99.90;;;;;;5070482;28;20477;-79
2022/01/14 02:34:11;;;;;;;29.10;25.60;;;-2.20;99.90;;;;;;5067808;28;20478;-78
2022/01/14 02:36:41;;;;;;;29.23;25.90;;;-2.20;99.90;;;;;;5067563;28;20467;-78
2022/01/14 02:39:08;;;;;;;28.13;25.27;;;-2.20;99.90;;;;;;5066754;28;20473;-79
2022/01/14 02:41:35;;;;;;;31.00;27.13;;;-2.30;99.90;;;;;;5067966;28;20856;-78
2022/01/14 02:44:04;;;;;;;31.77;27.33;;;-2.30;99.90;;;;;;5062312;28;20483;-79
2022/01/14 02:46:37;;;;;;;29.47;26.23;;;-2.30;99.90;;;;;;5055641;28;20446;-79
2022/01/14 02:49:04;;;;;;;32.37;25.90;;;-2.30;99.90;;;;;;5063032;28;20442;-77
2022/01/14 02:51:31;;;;;;;32.20;25.47;;;-2.40;99.90;;;;;;5067299;28;20482;-77
2022/01/14 02:54:11;;;;;;;29.17;25.07;;;-2.40;99.90;;;;;;5064683;28;20426;-79
2022/01/14 02:56:42;;;;;;;29.60;25.43;;;-2.40;99.90;;;;;;5078439;28;20475;-79
2022/01/14 02:59:11;;;;;;;34.47;27.07;;;-2.40;99.90;;;;;;5068923;28;20433;-78
2022/01/14 03:01:38;;;;;;;34.50;26.57;;;-2.40;99.90;;;;;;5063024;28;20437;-78
2022/01/14 03:04:06;;;;;;;28.57;25.33;;;-2.30;99.90;;;;;;5060863;28;20457;-79
2022/01/14 03:06:33;;;;;;;32.30;27.30;;;-2.30;99.90;;;;;;5066493;28;20437;-79
2022/01/14 03:09:01;;;;;;;33.93;27.30;;;-2.30;99.90;;;;;;5069313;28;20433;-78
2022/01/14 03:11:33;;;;;;;33.03;28.93;;;-2.30;99.90;;;;;;5058831;28;20463;-79
2022/01/14 03:14:00;;;;;;;32.30;27.57;;;-2.20;99.90;;;;;;5066713;28;20858;-78
2022/01/14 03:16:28;;;;;;;39.07;28.33;;;-2.20;99.90;;;;;;5071768;28;20446;-78
2022/01/14 03:19:05;;;;;;;35.83;29.97;;;-2.00;99.90;;;;;;5063953;28;20452;-78
2022/01/14 03:21:37;;;;;;;34.27;29.10;;;-2.00;99.90;;;;;;5055343;28;20947;-78
2022/01/14 03:24:17;;;;;;;35.33;29.20;;;-2.00;99.90;;;;;;5060918;28;20851;-78
2022/01/14 03:26:45;;;;;;;33.47;27.73;;;-1.90;99.90;;;;;;5063107;28;20519;-77
2022/01/14 03:29:12;;;;;;;38.37;27.63;;;-1.90;99.90;;;;;;5069266;28;20422;-78
2022/01/14 03:31:39;;;;;;;34.47;28.67;;;-1.80;99.90;;;;;;5067416;28;20473;-78
2022/01/14 03:34:06;;;;;;;36.10;29.30;;;-1.80;99.90;;;;;;5068609;28;20449;-82
2022/01/14 03:36:33;;;;;;;30.83;26.97;;;-1.80;99.90;;;;;;5066386;28;20440;-78
2022/01/14 03:39:00;;;;;;;34.27;27.63;;;-1.80;99.90;;;;;;5064072;28;20437;-78
2022/01/14 03:41:28;;;;;;;30.63;27.43;;;-1.80;99.90;;;;;;5059389;28;20934;-77
2022/01/14 03:43:55;;;;;;;29.87;26.67;;;-1.80;99.90;;;;;;5060180;28;20484;-79
2022/01/14 03:46:22;;;;;;;29.90;26.73;;;-1.80;99.90;;;;;;5070082;28;20894;-83
2022/01/14 03:48:52;;;;;;;29.77;26.57;;;-1.80;99.90;;;;;;5068436;28;20502;-82
2022/01/14 03:51:19;;;;;;;30.07;26.83;;;-1.70;99.90;;;;;;5069130;28;20920;-80
2022/01/14 03:53:47;;;;;;;31.80;26.33;;;-1.70;99.90;;;;;;5068223;28;20442;-80
2022/01/14 03:56:14;;;;;;;29.27;26.10;;;-1.70;99.90;;;;;;5070975;28;20460;-79
2022/01/14 03:58:43;;;;;;;29.90;25.20;;;-1.70;99.90;;;;;;5055150;28;20476;-79
2022/01/14 04:01:10;;;;;;;32.30;27.60;;;-1.70;99.90;;;;;;5058859;28;20450;-80
2022/01/14 04:03:37;;;;;;;32.23;26.73;;;-1.70;99.90;;;;;;5068183;28;20438;-78
2022/01/14 04:06:05;;;;;;;30.83;27.03;;;-1.70;99.90;;;;;;5067838;28;20467;-80
2022/01/14 04:08:32;;;;;;;29.90;26.70;;;-1.80;99.90;;;;;;5071237;28;20472;-80
2022/01/14 04:11:01;;;;;;;28.47;25.47;;;-1.80;99.90;;;;;;5078973;28;20881;-80
2022/01/14 04:13:38;;;;;;;28.67;25.43;;;-1.80;99.90;;;;;;5072572;28;20455;-80
2022/01/14 04:16:07;;;;;;;29.57;25.53;;;-1.70;99.90;;;;;;5060847;28;20422;-81
2022/01/14 04:18:49;;;;;;;27.57;24.67;;;-1.70;99.90;;;;;;5067748;28;20442;-81
2022/01/14 04:21:29;;;;;;;29.20;26.07;;;-1.70;99.90;;;;;;5067751;28;20438;-80
2022/01/14 04:23:56;;;;;;;28.47;24.20;;;-1.70;99.90;;;;;;5068912;28;20511;-84
2022/01/14 04:26:23;;;;;;;27.13;24.40;;;-1.70;99.90;;;;;;5072179;28;20485;-78
2022/01/14 04:28:49;;;;;;;26.47;23.77;;;-1.80;99.90;;;;;;5067347;28;20450;-81
2022/01/14 04:31:18;;;;;;;27.37;24.47;;;-1.80;99.90;;;;;;5067348;28;20469;-77
2022/01/14 04:33:45;;;;;;;29.00;25.47;;;-1.80;99.90;;;;;;5068724;28;20434;-78
2022/01/14 04:36:11;;;;;;;30.20;24.33;;;-1.90;99.90;;;;;;5070959;28;20570;-77
2022/01/14 04:38:38;;;;;;;29.70;25.53;;;-1.90;99.90;;;;;;5069949;28;21018;-78
2022/01/14 04:41:05;;;;;;;33.70;25.83;;;-1.90;99.90;;;;;;5073702;28;20445;-79
2022/01/14 04:43:32;;;;;;;27.10;23.33;;;-1.90;99.90;;;;;;5068208;28;20432;-79
2022/01/14 04:46:46;;;;;;;26.97;24.10;;;-1.90;99.90;;;;;;5073933;28;20444;-78
2022/01/14 04:49:13;;;;;;;31.40;22.73;;;-2.00;99.90;;;;;;5071213;28;20953;-77
2022/01/14 04:51:39;;;;;;;30.47;23.97;;;-2.00;99.90;;;;;;5068953;28;20464;-78
2022/01/14 04:54:06;;;;;;;28.03;24.07;;;-2.00;99.90;;;;;;5064150;28;20468;-78
2022/01/14 04:56:33;;;;;;;25.50;22.80;;;-2.00;99.90;;;;;;5068813;28;20445;-78
2022/01/14 04:59:00;;;;;;;26.40;22.90;;;-2.10;99.90;;;;;;5071276;28;20428;-79
2022/01/14 05:01:28;;;;;;;30.03;25.17;;;-2.10;99.90;;;;;;5070147;28;20442;-79
2022/01/14 05:03:57;;;;;;;26.90;22.90;;;-2.20;99.90;;;;;;5062696;28;20480;-79
2022/01/14 05:06:25;;;;;;;26.80;23.60;;;-2.20;99.90;;;;;;5074490;28;20452;-77
2022/01/14 05:08:52;;;;;;;28.20;24.20;;;-2.30;99.90;;;;;;5071906;28;20437;-78
2022/01/14 05:11:29;;;;;;;27.27;24.17;;;-2.30;99.90;;;;;;5071531;28;20472;-78
2022/01/14 05:13:56;;;;;;;27.03;23.97;;;-2.30;99.90;;;;;;5073585;28;20450;-77
2022/01/14 05:16:23;;;;;;;24.13;21.83;;;-2.30;99.90;;;;;;5071450;28;20448;-78
2022/01/14 05:18:50;;;;;;;27.63;23.70;;;-2.30;99.90;;;;;;5067446;28;20495;-78
2022/01/14 05:21:17;;;;;;;27.23;24.50;;;-2.40;99.90;;;;;;5069972;28;20442;-78
2022/01/14 05:23:45;;;;;;;27.40;23.23;;;-2.40;99.90;;;;;;5064682;28;20463;-78
2022/01/14 05:26:12;;;;;;;25.93;23.13;;;-2.30;99.90;;;;;;5060855;28;20437;-80
2022/01/14 05:28:39;;;;;;;27.93;25.03;;;-2.30;99.90;;;;;;5085770;22;20482;-78
2022/01/14 05:31:06;;;;;;;31.37;25.77;;;-2.30;99.90;;;;;;5074606;28;20519;-79
2022/01/14 05:33:33;;;;;;;29.60;25.63;;;-2.20;99.90;;;;;;5061003;28;20450;-78
2022/01/14 05:36:00;;;;;;;27.57;24.43;;;-2.20;99.90;;;;;;5060763;28;20461;-78
2022/01/14 05:38:26;;;;;;;28.93;25.83;;;-2.20;99.90;;;;;;5056194;28;20842;-78
2022/01/14 05:40:55;;;;;;;26.83;24.03;;;-2.30;99.90;;;;;;5056726;28;20442;-78
2022/01/14 05:43:22;;;;;;;30.17;26.43;;;-2.30;99.90;;;;;;5064709;28;20985;-79
2022/01/14 05:45:48;;;;;;;30.77;27.30;;;-2.20;99.90;;;;;;5058700;28;20466;-78
2022/01/14 05:48:15;;;;;;;41.03;37.03;;;-2.20;99.90;;;;;;5059626;28;21029;-78
2022/01/14 05:50:42;;;;;;;34.97;31.03;;;-2.20;99.90;;;;;;5064216;28;20483;-78
2022/01/14 05:53:09;;;;;;;34.73;28.30;;;-2.20;99.90;;;;;;5062067;28;20468;-78
2022/01/14 05:55:35;;;;;;;32.63;26.47;;;-2.20;99.90;;;;;;5055812;28;20453;-78
2022/01/14 05:58:04;;;;;;;28.63;25.57;;;-2.20;99.90;;;;;;5056399;28;20559;-78
2022/01/14 06:00:30;;;;;;;28.83;24.27;;;-2.20;99.90;;;;;;5044556;28;20485;-78
2022/01/14 06:02:57;;;;;;;29.63;26.37;;;-2.20;99.90;;;;;;5060090;28;20430;-78
2022/01/14 06:05:24;;;;;;;26.80;24.03;;;-2.20;99.90;;;;;;5060924;28;20441;-78
2022/01/14 06:07:52;;;;;;;28.90;25.53;;;-2.20;99.90;;;;;;5051606;28;20470;-78
2022/01/14 06:10:22;;;;;;;30.17;25.33;;;-2.30;99.90;;;;;;5064299;28;20527;-78
2022/01/14 06:12:49;;;;;;;30.53;25.77;;;-2.30;99.90;;;;;;5060485;28;20484;-78
2022/01/14 06:15:18;;;;;;;28.60;24.97;;;-2.30;99.90;;;;;;5055912;28;20469;-78
2022/01/14 06:17:45;;;;;;;27.33;24.40;;;-2.30;99.90;;;;;;5060103;28;20545;-76
2022/01/14 06:20:13;;;;;;;29.73;25.23;;;-2.30;99.90;;;;;;5061642;28;20520;-78
2022/01/14 06:22:40;;;;;;;28.43;24.27;;;-2.30;99.90;;;;;;5060409;28;20442;-78
2022/01/14 06:25:08;;;;;;;29.77;26.27;;;-2.20;99.90;;;;;;5053221;28;20449;-78
2022/01/14 06:27:35;;;;;;;29.80;25.07;;;-2.10;99.90;;;;;;5055821;28;20481;-79
2022/01/14 06:30:03;;;;;;;29.83;25.37;;;-2.10;99.90;;;;;;5065324;28;20502;-78
2022/01/14 06:32:31;;;;;;;32.13;25.67;;;-2.00;99.90;;;;;;5057499;28;20485;-78
2022/01/14 06:34:58;;;;;;;30.60;26.87;;;-2.00;99.90;;;;;;5059009;28;20483;-77
2022/01/14 06:37:24;;;;;;;31.90;25.90;;;-2.00;99.90;;;;;;5058154;28;20465;-78
2022/01/14 06:39:52;;;;;;;31.43;27.00;;;-1.90;99.90;;;;;;5057536;28;20456;-78
2022/01/14 06:42:19;;;;;;;29.43;26.23;;;-1.90;99.90;;;;;;5061960;28;20429;-78
2022/01/14 06:44:45;;;;;;;29.30;26.13;;;-1.80;99.90;;;;;;5061964;28;20425;-77
2022/01/14 06:47:12;;;;;;;29.17;25.07;;;-1.70;99.90;;;;;;5056029;28;20473;-77
2022/01/14 06:49:40;;;;;;;30.77;25.13;;;-1.70;99.90;;;;;;5059080;28;20495;-75
2022/01/14 06:52:10;;;;;;;30.27;25.00;;;-1.70;99.90;;;;;;5059725;28;20520;-76
2022/01/14 06:54:37;;;;;;;29.07;24.87;;;-1.70;99.90;;;;;;5057614;28;20433;-75
2022/01/14 06:57:04;;;;;;;30.93;25.63;;;-1.70;99.90;;;;;;5063062;28;20506;-75
2022/01/14 06:59:31;;;;;;;28.53;25.53;;;-1.70;99.90;;;;;;5053088;28;20799;-76
2022/01/14 07:01:58;;;;;;;27.27;24.53;;;-1.70;99.90;;;;;;5056255;28;20519;-76
2022/01/14 07:04:24;;;;;;;29.43;24.17;;;-1.70;99.90;;;;;;5063068;28;20429;-76
2022/01/14 07:06:52;;;;;;;27.37;24.43;;;-1.60;99.90;;;;;;5058360;28;20438;-75
2022/01/14 07:09:20;;;;;;;25.83;23.23;;;-1.60;99.90;;;;;;5062163;28;20460;-75
2022/01/14 07:11:53;;;;;;;27.10;23.73;;;-1.60;99.90;;;;;;5057598;28;20515;-76
2022/01/14 07:14:20;;;;;;;25.23;22.83;;;-1.60;99.90;;;;;;5060025;28;20440;-75
2022/01/14 07:16:47;;;;;;;26.37;23.30;;;-1.60;99.90;;;;;;5051830;28;20446;-77
2022/01/14 07:19:16;;;;;;;25.87;23.23;;;-1.60;99.90;;;;;;5056832;28;20521;-78
2022/01/14 07:21:43;;;;;;;28.07;25.03;;;-1.60;99.90;;;;;;5061973;28;20827;-77
2022/01/14 07:24:14;;;;;;;28.67;25.47;;;-1.60;99.90;;;;;;5051568;28;20862;-77
2022/01/14 07:26:41;;;;;;;27.70;24.77;;;-1.60;99.90;;;;;;5059380;28;20877;-77
2022/01/14 07:29:08;;;;;;;26.43;23.30;;;-1.60;99.90;;;;;;5058381;28;20885;-76
2022/01/14 07:31:36;;;;;;;26.17;23.40;;;-1.50;99.90;;;;;;5052485;28;20541;-76
2022/01/14 07:34:02;;;;;;;29.93;25.13;;;-1.50;99.90;;;;;;5052890;28;20432;-76
2022/01/14 07:36:29;;;;;;;31.53;27.73;;;-1.50;99.90;;;;;;5062985;28;20491;-76
2022/01/14 07:38:56;;;;;;;31.40;28.00;;;-1.50;99.90;;;;;;5063168;28;20879;-75
2022/01/14 07:41:24;;;;;;;30.03;26.80;;;-1.50;99.90;;;;;;5056242;28;20503;-75
2022/01/14 07:43:51;;;;;;;30.17;26.93;;;-1.40;99.90;;;;;;5059703;28;20445;-75
2022/01/14 07:46:18;;;;;;;33.33;27.07;;;-1.40;99.90;;;;;;5061698;28;20798;-76
2022/01/14 07:48:44;;;;;;;31.17;27.33;;;-1.30;99.90;;;;;;5052545;28;21036;-76
2022/01/14 07:51:14;;;;;;;33.13;27.10;;;-1.30;99.90;;;;;;5059546;28;20449;-75
2022/01/14 07:53:41;;;;;;;33.83;28.27;;;-1.30;99.90;;;;;;5056996;28;20487;-75
2022/01/14 07:56:11;;;;;;;30.67;26.77;;;-1.20;99.90;;;;;;5060775;28;20561;-75
2022/01/14 07:58:41;;;;;;;30.67;26.87;;;-1.20;99.90;;;;;;5049208;28;20477;-75
2022/01/14 08:01:08;;;;;;;30.57;27.27;;;-1.20;99.90;;;;;;5054666;28;20426;-75
2022/01/14 08:03:36;;;;;;;30.10;26.80;;;-1.10;99.90;;;;;;5059264;28;20442;-76
2022/01/14 08:06:04;;;;;;;28.37;25.37;;;-0.90;99.90;;;;;;5059596;28;20465;-75
2022/01/14 08:08:31;;;;;;;27.50;24.73;;;-0.70;99.90;;;;;;5062711;28;20457;-76
2022/01/14 08:10:58;;;;;;;28.57;25.60;;;-0.50;99.90;;;;;;5055808;28;20430;-75
2022/01/14 08:13:25;;;;;;;30.00;24.77;;;-0.30;99.90;;;;;;5057502;28;20572;-75
2022/01/14 08:15:55;;;;;;;28.20;25.17;;;-0.10;99.90;;;;;;5055381;28;20458;-76
2022/01/14 08:18:22;;;;;;;27.80;24.60;;;0.10;99.90;;;;;;5061681;28;20462;-76
2022/01/14 08:20:49;;;;;;;28.47;24.53;;;0.30;99.90;;;;;;5061832;28;20486;-76
2022/01/14 08:23:16;;;;;;;29.07;24.60;;;0.50;99.90;;;;;;5061569;28;20514;-76
2022/01/14 08:25:42;;;;;;;28.77;25.67;;;0.80;99.90;;;;;;5058921;28;20446;-76
2022/01/14 08:28:09;;;;;;;28.33;23.80;;;1.10;99.90;;;;;;5059645;28;20467;-76
2022/01/14 08:30:36;;;;;;;32.80;26.13;;;1.40;99.90;;;;;;5057800;28;21031;-76
2022/01/14 08:33:04;;;;;;;26.70;23.90;;;1.70;99.90;;;;;;5059315;28;20513;-76
2022/01/14 08:35:31;;;;;;;29.00;24.10;;;2.00;99.90;;;;;;5054028;28;20447;-76
2022/01/14 08:37:58;;;;;;;26.43;23.73;;;2.40;99.90;;;;;;5058727;28;20481;-76
2022/01/14 08:40:25;;;;;;;25.93;21.40;;;2.70;99.90;;;;;;5064005;28;20458;-76
2022/01/14 08:42:52;;;;;;;22.30;20.17;;;2.80;99.90;;;;;;5059868;28;20440;-76
2022/01/14 08:45:21;;;;;;;24.23;21.83;;;3.10;99.90;;;;;;5062671;28;20813;-76
2022/01/14 08:47:48;;;;;;;25.17;22.97;;;3.40;99.90;;;;;;5056982;28;20465;-76
2022/01/14 08:50:20;;;;;;;24.70;22.50;;;3.50;99.90;;;;;;5058189;28;20269;-76
2022/01/14 08:52:46;;;;;;;24.50;22.17;;;3.50;99.90;;;;;;5057783;28;20256;-76
2022/01/14 08:55:15;;;;;;;25.67;23.17;;;3.60;99.90;;;;;;5062605;28;20652;-77
2022/01/14 08:57:41;;;;;;;24.57;22.17;;;3.60;99.90;;;;;;5061428;28;20222;-76
2022/01/14 09:00:10;;;;;;;24.67;22.27;;;3.60;99.90;;;;;;5061327;28;20621;-76
2022/01/14 09:02:36;;;;;;;24.00;21.70;;;3.60;99.90;;;;;;5057462;28;20256;-76
2022/01/14 09:05:04;;;;;;;24.10;21.80;;;3.60;99.90;;;;;;5064374;28;20281;-76
2022/01/14 09:07:32;;;;;;;22.73;20.70;;;3.50;99.90;;;;;;5053841;28;20215;-77
2022/01/14 09:09:59;;;;;;;22.90;20.53;;;3.50;99.90;;;;;;5058482;28;20667;-76
2022/01/14 09:12:26;;;;;;;23.90;21.70;;;3.50;99.90;;;;;;5065485;28;20264;-75
2022/01/14 09:14:53;;;;;;;21.77;19.80;;;3.40;99.90;;;;;;5058487;28;20615;-76
2022/01/14 09:17:20;;;;;;;22.90;20.73;;;3.40;99.90;;;;;;5061854;28;20715;-76
2022/01/14 09:19:46;;;;;;;22.17;19.87;;;3.30;99.90;;;;;;5057001;28;20249;-76
2022/01/14 09:22:15;;;;;;;24.23;21.63;;;3.30;99.90;;;;;;5063429;28;20667;-77
2022/01/14 09:24:44;;;;;;;21.50;19.60;;;3.20;99.90;;;;;;5055204;28;20272;-76
2022/01/14 09:27:12;;;;;;;22.43;20.20;;;3.10;99.90;;;;;;5060234;28;20277;-76
2022/01/14 09:29:39;;;;;;;21.13;19.13;;;3.10;99.90;;;;;;5060796;28;20211;-76
2022/01/14 09:32:06;;;;;;;21.27;19.43;;;3.10;99.90;;;;;;5062005;28;20249;-76
2022/01/14 09:34:34;;;;;;;21.93;19.77;;;3.00;99.90;;;;;;5060683;28;20191;-76
2022/01/14 09:37:01;;;;;;;22.60;20.40;;;2.90;99.90;;;;;;5064750;28;20433;-76
2022/01/14 09:39:30;;;;;;;22.07;20.00;;;2.90;99.90;;;;;;5065198;28;20203;-76
2022/01/14 09:41:59;;;;;;;21.40;19.40;;;2.80;99.90;;;;;;5057760;28;20250;-77
2022/01/14 09:44:26;;;;;;;21.60;19.57;;;2.80;99.90;;;;;;5064769;28;20182;-76
2022/01/14 09:46:53;;;;;;;21.83;19.73;;;2.70;99.90;;;;;;5061675;28;20241;-76
2022/01/14 09:49:20;;;;;;;20.97;19.03;;;2.60;99.90;;;;;;5061485;28;20608;-76
2022/01/14 09:51:47;;;;;;;21.23;19.07;;;2.60;99.90;;;;;;5061522;28;20457;-76
2022/01/14 09:54:14;;;;;;;20.90;18.97;;;2.50;99.90;;;;;;5058501;28;20499;-76
2022/01/14 09:56:45;;;;;;;20.63;18.83;;;2.50;99.90;;;;;;5054443;28;20259;-76
2022/01/14 09:59:13;;;;;;;21.03;19.00;;;2.50;99.90;;;;;;5056554;28;20988;-76
2022/01/14 10:01:42;;;;;;;21.93;19.83;;;2.50;99.90;;;;;;5073050;28;20501;-76
2022/01/14 10:04:15;;;;;;;22.90;20.70;;;2.50;99.90;;;;;;5059599;28;20437;-76
2022/01/14 10:06:46;;;;;;;21.47;19.37;;;2.60;99.90;;;;;;5054851;28;20959;-76
2022/01/14 10:09:16;;;;;;;21.47;19.27;;;2.60;99.90;;;;;;5055415;28;20812;-76
2022/01/14 10:11:58;;;;;;;20.93;18.93;;;2.70;99.90;;;;;;5064804;28;20880;-77
2022/01/14 10:14:26;;;;;;;20.20;18.40;;;2.70;99.90;;;;;;5059840;28;20470;-76
2022/01/14 10:16:54;;;;;;;20.10;18.30;;;2.80;99.90;;;;;;5056207;28;20950;-76
2022/01/14 10:19:23;;;;;;;20.10;18.30;;;2.90;99.90;;;;;;5063332;28;20436;-76
2022/01/14 10:21:50;;;;;;;20.17;18.17;;;3.00;99.90;;;;;;5060468;28;20192;-76
2022/01/14 10:24:18;;;;;;;20.60;18.57;;;3.00;99.90;;;;;;5062840;28;20438;-76
2022/01/14 10:26:50;;;;;;;20.20;18.20;;;3.10;99.90;;;;;;5054731;28;20436;-76
2022/01/14 10:29:29;;;;;;;21.27;18.47;;;3.10;99.90;;;;;;5062853;28;20506;-76
2022/01/14 10:31:56;;;;;;;20.27;18.47;;;3.10;99.90;;;;;;5058082;28;20965;-76
2022/01/14 10:34:24;;;;;;;20.00;18.10;;;3.10;99.90;;;;;;5059814;28;20524;-76
2022/01/14 10:37:09;;;;;;;20.90;18.80;;;3.10;99.90;;;;;;5055378;28;20496;-76
2022/01/14 10:39:45;;;;;;;19.67;17.97;;;3.10;99.90;;;;;;5056097;28;20428;-76
2022/01/14 10:42:26;;;;;;;19.27;17.33;;;3.20;99.90;;;;;;5061265;28;20520;-76
2022/01/14 10:44:55;;;;;;;20.03;18.27;;;3.20;99.90;;;;;;5055376;28;20226;-76
2022/01/14 10:47:24;;;;;;;19.20;17.50;;;3.30;99.90;;;;;;5062772;28;20324;-76
2022/01/14 10:49:56;;;;;;;18.23;16.60;;;3.40;99.90;;;;;;5057024;28;20199;-76
2022/01/14 10:52:25;;;;;;;18.70;17.10;;;3.40;99.90;;;;;;5060258;28;20438;-76
2022/01/14 10:54:54;;;;;;;18.07;16.47;;;3.50;99.90;;;;;;5058157;28;20656;-76
2022/01/14 10:57:26;;;;;;;18.20;16.70;;;3.50;99.90;;;;;;5060720;28;20210;-76
2022/01/14 10:59:56;;;;;;;17.43;16.03;;;3.50;99.90;;;;;;5052455;28;20479;-76
2022/01/14 11:02:38;;;;;;;17.87;16.40;;;3.60;99.90;;;;;;5058343;28;20194;-76
2022/01/14 11:05:08;;;;;;;17.70;16.10;;;3.60;99.90;;;;;;5056605;28;20294;-76
2022/01/14 11:07:35;;;;;;;17.60;15.90;;;3.70;99.90;;;;;;5059168;28;20460;-76
2022/01/14 11:10:13;;;;;;;15.77;14.47;;;3.80;99.90;;;;;;5058787;28;20214;-76
2022/01/14 11:12:41;;;;;;;15.80;14.40;;;3.80;99.90;;;;;;5053398;28;20191;-76
2022/01/14 11:15:11;;;;;;;15.93;14.53;;;3.90;99.90;;;;;;5061662;28;20199;-76
2022/01/14 11:17:39;;;;;;;15.93;14.63;;;3.90;99.90;;;;;;5061841;28;20241;-76
2022/01/14 11:20:08;;;;;;;15.63;14.23;;;4.00;99.90;;;;;;5058624;28;20194;-76
2022/01/14 11:25:20;;;;;;;16.17;14.77;;;4.10;99.90;;;;;;5060654;28;20205;-76
2022/01/14 11:27:50;;;;;;;16.17;14.87;;;4.20;99.90;;;;;;5059304;28;20226;-76
2022/01/14 11:30:18;;;;;;;18.17;16.57;;;4.20;99.90;;;;;;5058580;28;21030;-77
2022/01/14 11:32:55;;;;;;;17.07;15.67;;;4.20;99.90;;;;;;5057435;28;20193;-76
2022/01/14 11:35:25;;;;;;;17.37;15.77;;;4.30;99.90;;;;;;5060454;28;20216;-76
2022/01/14 11:37:52;;;;;;;16.60;15.10;;;4.30;99.90;;;;;;5059468;28;20769;-76
2022/01/14 11:40:20;;;;;;;16.37;14.97;;;4.40;99.90;;;;;;5057498;28;20203;-76
2022/01/14 11:42:48;;;;;;;16.00;14.60;;;4.40;99.90;;;;;;5063053;28;20667;-76
2022/01/14 11:45:18;;;;;;;16.47;15.07;;;4.50;99.90;;;;;;5054090;28;20199;-76
2022/01/14 11:48:02;;;;;;;15.90;14.57;;;4.50;99.90;;;;;;5058036;28;20597;-76
2022/01/14 11:50:49;;;;;;;16.87;15.43;;;4.50;99.90;;;;;;5061412;28;20186;-76
2022/01/14 11:53:43;;;;;;;16.07;14.67;;;4.60;99.90;;;;;;5058218;28;20210;-76
2022/01/14 11:56:43;;;;;;;16.20;14.90;;;4.60;99.90;;;;;;5059482;28;20186;-76
2022/01/14 11:59:42;;;;;;;15.67;14.37;;;4.70;99.90;;;;;;5055981;28;20203;-76
2022/01/14 12:02:35;;;;;;;15.47;14.17;;;4.80;99.90;;;;;;5060359;28;20257;-77
2022/01/14 12:05:17;;;;;;;14.47;13.30;;;4.80;99.90;;;;;;5057787;28;20880;-76
2022/01/14 12:08:20;;;;;;;14.60;13.40;;;4.90;99.90;;;;;;5057004;28;20215;-76
2022/01/14 12:10:50;;;;;;;14.30;13.20;;;5.00;99.90;;;;;;5057903;28;20195;-77
2022/01/14 12:13:23;;;;;;;13.90;12.80;;;5.00;99.90;;;;;;5063356;28;20703;-76
2022/01/14 12:15:57;;;;;;;14.60;13.50;;;5.10;99.90;;;;;;5063459;28;20199;-77
2022/01/14 12:19:17;;;;;;;13.33;12.33;;;5.20;99.90;;;;;;5062083;28;20246;-76
2022/01/14 12:22:11;;;;;;;13.23;12.30;;;5.20;99.90;;;;;;5057730;28;20620;-77
2022/01/14 12:24:50;;;;;;;13.80;12.70;;;5.40;99.90;;;;;;5056215;28;20183;-76
2022/01/14 12:27:25;;;;;;;13.40;12.40;;;5.40;99.90;;;;;;5062509;28;20229;-76
2022/01/14 12:30:02;;;;;;;13.70;12.70;;;5.50;99.90;;;;;;5058128;28;20277;-76
2022/01/14 12:32:37;;;;;;;13.53;12.53;;;5.60;99.90;;;;;;5063217;28;20274;-77
2022/01/14 12:35:08;;;;;;;13.00;12.10;;;5.60;99.90;;;;;;5052580;28;20228;-76
2022/01/14 12:37:39;;;;;;;13.13;12.03;;;5.70;99.90;;;;;;5062610;28;20249;-76
2022/01/14 12:40:09;;;;;;;14.00;12.90;;;5.70;99.90;;;;;;5055198;28;20282;-76
2022/01/14 12:42:37;;;;;;;13.57;12.57;;;5.70;99.90;;;;;;5061439;28;20268;-77
2022/01/14 12:45:07;;;;;;;14.33;13.23;;;5.70;99.90;;;;;;5065878;28;20191;-75
2022/01/14 12:47:39;;;;;;;13.93;12.73;;;5.70;99.90;;;;;;5060758;28;20310;-76
2022/01/14 12:50:08;;;;;;;13.60;12.60;;;5.80;99.90;;;;;;5063659;28;20203;-76
2022/01/14 12:52:48;;;;;;;13.43;12.43;;;5.80;99.90;;;;;;5055279;28;20253;-76
2022/01/14 12:55:15;;;;;;;13.43;12.33;;;5.90;99.90;;;;;;5062250;28;20646;-76